sensor_id;sensor_type;location;lat;lon;timestamp;P1;durP1;ratioP1;P2;durP2;ratioP2
19343;SDS011;9808;52.402;16.678;2022-09-09T00:01:58;18.75;;;12.25;;
19343;SDS011;9808;52.402;16.678;2022-09-09T00:04:45;16.27;;;11.20;;
19343;SDS011;9808;52.402;16.678;2022-09-09T00:07:21;17.52;;;11.20;;
19343;SDS011;9808;52.402;16.678;2022-09-09T00:21:25;17.70;;;10.82;;
19343;SDS011;9808;52.402;16.678;2022-09-09T00:24:11;15.05;;;9.35;;
19343;SDS011;9808;52.402;16.678;2022-09-09T00:27:04;14.68;;;9.07;;
19343;SDS011;9808;52.402;16.678;2022-09-09T00:29:47;11.98;;;8.65;;
19343;SDS011;9808;52.402;16.678;2022-09-09T00:32:20;13.20;;;8.18;;
19343;SDS011;9808;52.402;16.678;2022-09-09T00:34:49;15.20;;;8.98;;
19343;SDS011;9808;52.402;16.678;2022-09-09T00:37:16;12.88;;;8.85;;
19343;SDS011;9808;52.402;16.678;2022-09-09T00:39:45;14.30;;;8.35;;
19343;SDS011;9808;52.402;16.678;2022-09-09T00:50:06;11.38;;;8.25;;
19343;SDS011;9808;52.402;16.678;2022-09-09T00:55:48;11.50;;;7.65;;
19343;SDS011;9808;52.402;16.678;2022-09-09T00:58:21;14.30;;;8.85;;
19343;SDS011;9808;52.402;16.678;2022-09-09T01:00:52;11.48;;;7.43;;
19343;SDS011;9808;52.402;16.678;2022-09-09T01:03:34;12.07;;;6.93;;
19343;SDS011;9808;52.402;16.678;2022-09-09T01:06:35;10.77;;;7.30;;
19343;SDS011;9808;52.402;16.678;2022-09-09T01:09:05;10.88;;;7.55;;
19343;SDS011;9808;52.402;16.678;2022-09-09T01:14:40;10.88;;;7.40;;
19343;SDS011;9808;52.402;16.678;2022-09-09T01:27:41;10.10;;;6.40;;
19343;SDS011;9808;52.402;16.678;2022-09-09T01:30:13;10.27;;;6.25;;
19343;SDS011;9808;52.402;16.678;2022-09-09T01:32:46;13.07;;;6.38;;
19343;SDS011;9808;52.402;16.678;2022-09-09T01:37:58;11.50;;;6.90;;
19343;SDS011;9808;52.402;16.678;2022-09-09T01:40:25;10.45;;;6.40;;
19343;SDS011;9808;52.402;16.678;2022-09-09T01:42:52;9.50;;;6.63;;
19343;SDS011;9808;52.402;16.678;2022-09-09T01:45:20;11.05;;;6.30;;
19343;SDS011;9808;52.402;16.678;2022-09-09T01:47:48;11.70;;;5.90;;
19343;SDS011;9808;52.402;16.678;2022-09-09T01:50:15;11.20;;;5.85;;
19343;SDS011;9808;52.402;16.678;2022-09-09T01:52:43;8.50;;;5.90;;
19343;SDS011;9808;52.402;16.678;2022-09-09T01:55:14;9.10;;;5.80;;
19343;SDS011;9808;52.402;16.678;2022-09-09T01:57:46;8.70;;;5.68;;
19343;SDS011;9808;52.402;16.678;2022-09-09T02:00:27;10.27;;;5.70;;
19343;SDS011;9808;52.402;16.678;2022-09-09T02:03:12;12.95;;;6.72;;
19343;SDS011;9808;52.402;16.678;2022-09-09T02:05:50;9.95;;;5.70;;
19343;SDS011;9808;52.402;16.678;2022-09-09T02:08:43;11.65;;;6.00;;
19343;SDS011;9808;52.402;16.678;2022-09-09T02:11:14;12.98;;;5.78;;
19343;SDS011;9808;52.402;16.678;2022-09-09T02:13:46;8.25;;;5.93;;
19343;SDS011;9808;52.402;16.678;2022-09-09T02:18:56;10.65;;;5.88;;
19343;SDS011;9808;52.402;16.678;2022-09-09T02:21:29;7.63;;;5.63;;
19343;SDS011;9808;52.402;16.678;2022-09-09T02:23:58;9.02;;;5.72;;
19343;SDS011;9808;52.402;16.678;2022-09-09T02:26:26;7.00;;;5.10;;
19343;SDS011;9808;52.402;16.678;2022-09-09T02:28:54;9.73;;;5.18;;
19343;SDS011;9808;52.402;16.678;2022-09-09T02:31:24;10.95;;;6.10;;
19343;SDS011;9808;52.402;16.678;2022-09-09T02:33:53;9.10;;;5.60;;
19343;SDS011;9808;52.402;16.678;2022-09-09T02:36:23;10.80;;;5.57;;
19343;SDS011;9808;52.402;16.678;2022-09-09T02:38:53;11.60;;;6.57;;
19343;SDS011;9808;52.402;16.678;2022-09-09T02:41:20;9.10;;;5.28;;
19343;SDS011;9808;52.402;16.678;2022-09-09T02:43:50;9.35;;;6.07;;
19343;SDS011;9808;52.402;16.678;2022-09-09T02:54:23;10.60;;;5.78;;
19343;SDS011;9808;52.402;16.678;2022-09-09T02:57:01;9.35;;;6.07;;
19343;SDS011;9808;52.402;16.678;2022-09-09T02:59:32;12.40;;;6.40;;
19343;SDS011;9808;52.402;16.678;2022-09-09T03:01:59;8.40;;;5.80;;
19343;SDS011;9808;52.402;16.678;2022-09-09T03:04:27;8.95;;;6.20;;
19343;SDS011;9808;52.402;16.678;2022-09-09T03:06:54;8.13;;;5.78;;
19343;SDS011;9808;52.402;16.678;2022-09-09T03:09:20;10.25;;;5.97;;
19343;SDS011;9808;52.402;16.678;2022-09-09T03:11:47;10.10;;;6.13;;
19343;SDS011;9808;52.402;16.678;2022-09-09T03:14:15;10.60;;;5.18;;
19343;SDS011;9808;52.402;16.678;2022-09-09T03:16:42;8.88;;;5.97;;
19343;SDS011;9808;52.402;16.678;2022-09-09T03:19:09;9.65;;;6.70;;
19343;SDS011;9808;52.402;16.678;2022-09-09T03:21:36;9.43;;;5.95;;
19343;SDS011;9808;52.402;16.678;2022-09-09T03:24:03;9.95;;;6.45;;
19343;SDS011;9808;52.402;16.678;2022-09-09T03:26:30;11.65;;;6.43;;
19343;SDS011;9808;52.402;16.678;2022-09-09T03:28:57;10.07;;;6.45;;
19343;SDS011;9808;52.402;16.678;2022-09-09T03:31:35;8.80;;;6.10;;
19343;SDS011;9808;52.402;16.678;2022-09-09T03:34:02;8.77;;;6.05;;
19343;SDS011;9808;52.402;16.678;2022-09-09T03:36:29;8.93;;;5.93;;
19343;SDS011;9808;52.402;16.678;2022-09-09T03:38:56;10.55;;;6.63;;
19343;SDS011;9808;52.402;16.678;2022-09-09T03:41:24;8.68;;;5.93;;
19343;SDS011;9808;52.402;16.678;2022-09-09T03:43:52;9.10;;;6.22;;
19343;SDS011;9808;52.402;16.678;2022-09-09T03:46:20;9.07;;;6.72;;
19343;SDS011;9808;52.402;16.678;2022-09-09T03:48:48;12.20;;;6.30;;
19343;SDS011;9808;52.402;16.678;2022-09-09T03:51:15;13.02;;;6.85;;
19343;SDS011;9808;52.402;16.678;2022-09-09T03:53:42;10.75;;;5.90;;
19343;SDS011;9808;52.402;16.678;2022-09-09T03:56:09;11.18;;;6.18;;
19343;SDS011;9808;52.402;16.678;2022-09-09T03:58:37;9.25;;;6.50;;
19343;SDS011;9808;52.402;16.678;2022-09-09T04:01:08;8.60;;;6.50;;
19343;SDS011;9808;52.402;16.678;2022-09-09T04:03:39;11.88;;;6.90;;
19343;SDS011;9808;52.402;16.678;2022-09-09T04:06:07;9.95;;;7.13;;
19343;SDS011;9808;52.402;16.678;2022-09-09T04:08:36;13.65;;;7.70;;
19343;SDS011;9808;52.402;16.678;2022-09-09T04:11:04;10.30;;;7.65;;
19343;SDS011;9808;52.402;16.678;2022-09-09T04:13:33;10.00;;;6.82;;
19343;SDS011;9808;52.402;16.678;2022-09-09T04:16:00;9.95;;;6.10;;
19343;SDS011;9808;52.402;16.678;2022-09-09T04:18:30;12.07;;;7.03;;
19343;SDS011;9808;52.402;16.678;2022-09-09T04:20:57;13.73;;;8.40;;
19343;SDS011;9808;52.402;16.678;2022-09-09T04:23:24;15.80;;;8.75;;
19343;SDS011;9808;52.402;16.678;2022-09-09T04:25:53;15.60;;;8.20;;
19343;SDS011;9808;52.402;16.678;2022-09-09T04:28:22;12.07;;;8.50;;
19343;SDS011;9808;52.402;16.678;2022-09-09T04:30:50;12.55;;;9.68;;
19343;SDS011;9808;52.402;16.678;2022-09-09T04:33:17;12.73;;;8.70;;
19343;SDS011;9808;52.402;16.678;2022-09-09T04:35:45;14.98;;;9.75;;
19343;SDS011;9808;52.402;16.678;2022-09-09T04:38:14;14.35;;;9.48;;
19343;SDS011;9808;52.402;16.678;2022-09-09T04:40:42;11.93;;;8.48;;
19343;SDS011;9808;52.402;16.678;2022-09-09T04:43:09;12.48;;;9.23;;
19343;SDS011;9808;52.402;16.678;2022-09-09T04:45:40;14.70;;;9.77;;
19343;SDS011;9808;52.402;16.678;2022-09-09T04:48:08;17.17;;;10.23;;
19343;SDS011;9808;52.402;16.678;2022-09-09T04:50:35;13.57;;;10.20;;
19343;SDS011;9808;52.402;16.678;2022-09-09T04:53:02;16.52;;;11.20;;
19343;SDS011;9808;52.402;16.678;2022-09-09T04:55:31;17.85;;;11.40;;
19343;SDS011;9808;52.402;16.678;2022-09-09T04:58:02;14.27;;;10.02;;
19343;SDS011;9808;52.402;16.678;2022-09-09T05:00:33;18.02;;;11.52;;
19343;SDS011;9808;52.402;16.678;2022-09-09T05:03:02;14.48;;;10.77;;
19343;SDS011;9808;52.402;16.678;2022-09-09T05:05:31;13.80;;;10.30;;
19343;SDS011;9808;52.402;16.678;2022-09-09T05:08:03;26.65;;;12.10;;
19343;SDS011;9808;52.402;16.678;2022-09-09T05:10:32;17.65;;;10.73;;
19343;SDS011;9808;52.402;16.678;2022-09-09T05:12:59;14.95;;;10.95;;
19343;SDS011;9808;52.402;16.678;2022-09-09T05:15:26;16.38;;;12.23;;
19343;SDS011;9808;52.402;16.678;2022-09-09T05:17:56;23.50;;;11.75;;
19343;SDS011;9808;52.402;16.678;2022-09-09T05:20:27;27.92;;;11.77;;
19343;SDS011;9808;52.402;16.678;2022-09-09T05:22:54;18.95;;;12.18;;
19343;SDS011;9808;52.402;16.678;2022-09-09T05:25:23;19.00;;;11.15;;
19343;SDS011;9808;52.402;16.678;2022-09-09T05:27:53;35.88;;;11.43;;
19343;SDS011;9808;52.402;16.678;2022-09-09T05:30:20;40.40;;;11.50;;
19343;SDS011;9808;52.402;16.678;2022-09-09T05:32:48;15.68;;;11.00;;
19343;SDS011;9808;52.402;16.678;2022-09-09T05:35:16;23.73;;;11.95;;
19343;SDS011;9808;52.402;16.678;2022-09-09T05:37:45;16.52;;;11.45;;
19343;SDS011;9808;52.402;16.678;2022-09-09T05:40:12;19.42;;;11.63;;
19343;SDS011;9808;52.402;16.678;2022-09-09T05:42:39;17.98;;;11.15;;
19343;SDS011;9808;52.402;16.678;2022-09-09T05:45:07;15.27;;;10.73;;
19343;SDS011;9808;52.402;16.678;2022-09-09T05:47:35;12.40;;;8.88;;
19343;SDS011;9808;52.402;16.678;2022-09-09T05:50:03;16.83;;;10.63;;
19343;SDS011;9808;52.402;16.678;2022-09-09T05:52:30;15.15;;;10.95;;
19343;SDS011;9808;52.402;16.678;2022-09-09T05:54:58;14.63;;;11.23;;
19343;SDS011;9808;52.402;16.678;2022-09-09T05:57:26;18.60;;;11.60;;
19343;SDS011;9808;52.402;16.678;2022-09-09T05:59:53;15.60;;;10.98;;
19343;SDS011;9808;52.402;16.678;2022-09-09T06:02:19;13.50;;;10.55;;
19343;SDS011;9808;52.402;16.678;2022-09-09T06:04:46;16.33;;;11.02;;
19343;SDS011;9808;52.402;16.678;2022-09-09T06:07:13;17.25;;;11.73;;
19343;SDS011;9808;52.402;16.678;2022-09-09T06:09:40;23.02;;;12.65;;
19343;SDS011;9808;52.402;16.678;2022-09-09T06:12:07;19.25;;;11.73;;
19343;SDS011;9808;52.402;16.678;2022-09-09T06:14:35;15.80;;;10.85;;
19343;SDS011;9808;52.402;16.678;2022-09-09T06:17:03;18.65;;;11.25;;
19343;SDS011;9808;52.402;16.678;2022-09-09T06:19:29;17.35;;;11.95;;
19343;SDS011;9808;52.402;16.678;2022-09-09T06:21:57;15.45;;;10.55;;
19343;SDS011;9808;52.402;16.678;2022-09-09T06:24:24;16.17;;;11.18;;
19343;SDS011;9808;52.402;16.678;2022-09-09T06:26:51;16.45;;;10.68;;
19343;SDS011;9808;52.402;16.678;2022-09-09T06:29:18;16.08;;;11.50;;
19343;SDS011;9808;52.402;16.678;2022-09-09T06:31:44;17.45;;;10.90;;
19343;SDS011;9808;52.402;16.678;2022-09-09T06:34:11;15.07;;;11.18;;
19343;SDS011;9808;52.402;16.678;2022-09-09T06:36:39;15.15;;;10.38;;
19343;SDS011;9808;52.402;16.678;2022-09-09T06:39:06;13.13;;;10.05;;
19343;SDS011;9808;52.402;16.678;2022-09-09T06:41:40;16.23;;;9.65;;
19343;SDS011;9808;52.402;16.678;2022-09-09T06:44:07;11.77;;;9.27;;
19343;SDS011;9808;52.402;16.678;2022-09-09T06:46:33;14.23;;;9.25;;
19343;SDS011;9808;52.402;16.678;2022-09-09T06:49:01;11.05;;;8.60;;
19343;SDS011;9808;52.402;16.678;2022-09-09T06:51:29;12.90;;;8.98;;
19343;SDS011;9808;52.402;16.678;2022-09-09T06:53:58;11.52;;;8.88;;
19343;SDS011;9808;52.402;16.678;2022-09-09T06:56:27;11.85;;;8.93;;
19343;SDS011;9808;52.402;16.678;2022-09-09T06:58:59;10.30;;;8.40;;
19343;SDS011;9808;52.402;16.678;2022-09-09T07:01:32;12.85;;;8.82;;
19343;SDS011;9808;52.402;16.678;2022-09-09T07:04:01;11.95;;;8.60;;
19343;SDS011;9808;52.402;16.678;2022-09-09T07:06:31;11.55;;;8.38;;
19343;SDS011;9808;52.402;16.678;2022-09-09T07:09:07;15.98;;;8.60;;
19343;SDS011;9808;52.402;16.678;2022-09-09T07:11:44;12.23;;;9.00;;
19343;SDS011;9808;52.402;16.678;2022-09-09T07:14:13;10.98;;;8.50;;
19343;SDS011;9808;52.402;16.678;2022-09-09T07:16:41;11.23;;;8.38;;
19343;SDS011;9808;52.402;16.678;2022-09-09T07:19:10;11.82;;;8.57;;
19343;SDS011;9808;52.402;16.678;2022-09-09T07:21:38;9.88;;;7.68;;
19343;SDS011;9808;52.402;16.678;2022-09-09T07:24:06;10.38;;;8.13;;
19343;SDS011;9808;52.402;16.678;2022-09-09T07:26:37;11.82;;;7.90;;
19343;SDS011;9808;52.402;16.678;2022-09-09T07:29:05;11.05;;;7.30;;
19343;SDS011;9808;52.402;16.678;2022-09-09T07:31:34;15.10;;;8.20;;
19343;SDS011;9808;52.402;16.678;2022-09-09T07:34:03;11.48;;;7.47;;
19343;SDS011;9808;52.402;16.678;2022-09-09T07:36:31;10.18;;;7.72;;
19343;SDS011;9808;52.402;16.678;2022-09-09T07:39:00;9.80;;;7.47;;
19343;SDS011;9808;52.402;16.678;2022-09-09T07:41:33;13.85;;;8.27;;
19343;SDS011;9808;52.402;16.678;2022-09-09T07:44:06;11.88;;;7.60;;
19343;SDS011;9808;52.402;16.678;2022-09-09T07:46:35;12.90;;;8.32;;
19343;SDS011;9808;52.402;16.678;2022-09-09T07:49:03;11.30;;;8.30;;
19343;SDS011;9808;52.402;16.678;2022-09-09T07:51:34;10.75;;;8.23;;
19343;SDS011;9808;52.402;16.678;2022-09-09T07:54:04;12.35;;;7.57;;
19343;SDS011;9808;52.402;16.678;2022-09-09T07:56:33;11.80;;;7.57;;
19343;SDS011;9808;52.402;16.678;2022-09-09T07:59:00;10.52;;;7.03;;
19343;SDS011;9808;52.402;16.678;2022-09-09T08:01:28;11.32;;;7.53;;
19343;SDS011;9808;52.402;16.678;2022-09-09T08:03:58;9.82;;;7.00;;
19343;SDS011;9808;52.402;16.678;2022-09-09T08:06:34;9.40;;;6.63;;
19343;SDS011;9808;52.402;16.678;2022-09-09T08:09:03;8.32;;;6.00;;
19343;SDS011;9808;52.402;16.678;2022-09-09T08:11:32;9.07;;;6.53;;
19343;SDS011;9808;52.402;16.678;2022-09-09T08:14:04;9.98;;;6.82;;
19343;SDS011;9808;52.402;16.678;2022-09-09T08:16:35;9.30;;;6.68;;
19343;SDS011;9808;52.402;16.678;2022-09-09T08:19:04;8.02;;;5.50;;
19343;SDS011;9808;52.402;16.678;2022-09-09T08:21:33;8.15;;;5.32;;
19343;SDS011;9808;52.402;16.678;2022-09-09T08:24:03;7.53;;;5.20;;
19343;SDS011;9808;52.402;16.678;2022-09-09T08:26:32;6.68;;;4.90;;
19343;SDS011;9808;52.402;16.678;2022-09-09T08:29:05;9.30;;;5.30;;
19343;SDS011;9808;52.402;16.678;2022-09-09T08:31:35;8.52;;;4.65;;
19343;SDS011;9808;52.402;16.678;2022-09-09T08:34:04;8.73;;;4.70;;
19343;SDS011;9808;52.402;16.678;2022-09-09T08:36:33;11.43;;;4.70;;
19343;SDS011;9808;52.402;16.678;2022-09-09T08:39:12;11.30;;;4.78;;
19343;SDS011;9808;52.402;16.678;2022-09-09T08:55:50;6.85;;;4.85;;
19343;SDS011;9808;52.402;16.678;2022-09-09T08:58:19;7.68;;;4.50;;
19343;SDS011;9808;52.402;16.678;2022-09-09T09:12:25;7.55;;;4.32;;
19343;SDS011;9808;52.402;16.678;2022-09-09T09:14:56;10.88;;;4.18;;
19343;SDS011;9808;52.402;16.678;2022-09-09T09:17:25;7.47;;;4.55;;
19343;SDS011;9808;52.402;16.678;2022-09-09T09:19:57;8.30;;;5.13;;
19343;SDS011;9808;52.402;16.678;2022-09-09T09:27:43;6.30;;;4.30;;
19343;SDS011;9808;52.402;16.678;2022-09-09T09:30:22;6.88;;;4.05;;
19343;SDS011;9808;52.402;16.678;2022-09-09T09:32:56;9.25;;;4.53;;
19343;SDS011;9808;52.402;16.678;2022-09-09T09:35:28;6.75;;;4.38;;
19343;SDS011;9808;52.402;16.678;2022-09-09T09:37:55;7.68;;;4.03;;
19343;SDS011;9808;52.402;16.678;2022-09-09T09:40:51;6.65;;;3.88;;
19343;SDS011;9808;52.402;16.678;2022-09-09T09:43:27;6.97;;;4.38;;
19343;SDS011;9808;52.402;16.678;2022-09-09T09:45:55;8.73;;;3.53;;
19343;SDS011;9808;52.402;16.678;2022-09-09T09:48:42;7.18;;;3.70;;
19343;SDS011;9808;52.402;16.678;2022-09-09T09:51:09;7.15;;;3.85;;
19343;SDS011;9808;52.402;16.678;2022-09-09T09:53:41;5.63;;;3.33;;
19343;SDS011;9808;52.402;16.678;2022-09-09T09:56:09;5.45;;;3.70;;
19343;SDS011;9808;52.402;16.678;2022-09-09T09:58:48;5.35;;;3.55;;
19343;SDS011;9808;52.402;16.678;2022-09-09T10:01:27;6.95;;;3.90;;
19343;SDS011;9808;52.402;16.678;2022-09-09T10:04:12;9.30;;;3.85;;
19343;SDS011;9808;52.402;16.678;2022-09-09T10:06:42;6.40;;;3.55;;
19343;SDS011;9808;52.402;16.678;2022-09-09T10:09:22;5.25;;;3.30;;
19343;SDS011;9808;52.402;16.678;2022-09-09T10:12:00;7.93;;;3.40;;
19343;SDS011;9808;52.402;16.678;2022-09-09T10:14:52;7.70;;;3.85;;
19343;SDS011;9808;52.402;16.678;2022-09-09T10:20:30;5.03;;;2.63;;
19343;SDS011;9808;52.402;16.678;2022-09-09T10:23:16;8.30;;;2.63;;
19343;SDS011;9808;52.402;16.678;2022-09-09T10:34:35;5.30;;;2.20;;
19343;SDS011;9808;52.402;16.678;2022-09-09T10:40:13;4.60;;;1.90;;
19343;SDS011;9808;52.402;16.678;2022-09-09T10:46:16;5.60;;;2.20;;
19343;SDS011;9808;52.402;16.678;2022-09-09T11:00:26;7.63;;;2.53;;
19343;SDS011;9808;52.402;16.678;2022-09-09T11:02:54;5.57;;;2.40;;
19343;SDS011;9808;52.402;16.678;2022-09-09T11:07:58;4.88;;;2.00;;
19343;SDS011;9808;52.402;16.678;2022-09-09T11:10:52;6.07;;;2.08;;
19343;SDS011;9808;52.402;16.678;2022-09-09T11:13:23;6.70;;;2.00;;
19343;SDS011;9808;52.402;16.678;2022-09-09T11:16:16;6.35;;;2.25;;
19343;SDS011;9808;52.402;16.678;2022-09-09T11:33:31;6.63;;;1.85;;
19343;SDS011;9808;52.402;16.678;2022-09-09T11:36:25;5.75;;;1.92;;
19343;SDS011;9808;52.402;16.678;2022-09-09T11:38:55;4.88;;;1.65;;
19343;SDS011;9808;52.402;16.678;2022-09-09T11:41:44;9.57;;;2.00;;
19343;SDS011;9808;52.402;16.678;2022-09-09T11:44:11;5.05;;;1.55;;
19343;SDS011;9808;52.402;16.678;2022-09-09T11:46:39;6.30;;;1.48;;
19343;SDS011;9808;52.402;16.678;2022-09-09T11:52:23;5.50;;;1.55;;
19343;SDS011;9808;52.402;16.678;2022-09-09T11:55:34;3.85;;;1.38;;
19343;SDS011;9808;52.402;16.678;2022-09-09T11:58:03;6.35;;;1.48;;
19343;SDS011;9808;52.402;16.678;2022-09-09T12:00:43;4.70;;;1.48;;
19343;SDS011;9808;52.402;16.678;2022-09-09T12:06:26;5.32;;;1.60;;
19343;SDS011;9808;52.402;16.678;2022-09-09T12:09:05;6.82;;;1.40;;
19343;SDS011;9808;52.402;16.678;2022-09-09T12:11:38;5.28;;;1.70;;
19343;SDS011;9808;52.402;16.678;2022-09-09T12:14:18;5.18;;;1.90;;
19343;SDS011;9808;52.402;16.678;2022-09-09T12:16:47;3.85;;;1.65;;
19343;SDS011;9808;52.402;16.678;2022-09-09T12:21:48;5.40;;;1.33;;
19343;SDS011;9808;52.402;16.678;2022-09-09T12:24:25;6.55;;;1.73;;
19343;SDS011;9808;52.402;16.678;2022-09-09T12:27:06;3.15;;;1.25;;
19343;SDS011;9808;52.402;16.678;2022-09-09T12:29:48;3.55;;;1.30;;
19343;SDS011;9808;52.402;16.678;2022-09-09T12:32:24;8.60;;;1.60;;
19343;SDS011;9808;52.402;16.678;2022-09-09T12:34:58;5.13;;;1.33;;
19343;SDS011;9808;52.402;16.678;2022-09-09T12:42:46;4.15;;;1.50;;
19343;SDS011;9808;52.402;16.678;2022-09-09T12:45:20;6.80;;;1.70;;
19343;SDS011;9808;52.402;16.678;2022-09-09T12:47:49;3.53;;;1.17;;
19343;SDS011;9808;52.402;16.678;2022-09-09T12:50:20;4.25;;;1.48;;
19343;SDS011;9808;52.402;16.678;2022-09-09T12:52:49;4.05;;;1.48;;
19343;SDS011;9808;52.402;16.678;2022-09-09T12:55:20;3.10;;;1.23;;
19343;SDS011;9808;52.402;16.678;2022-09-09T12:57:51;4.30;;;1.40;;
19343;SDS011;9808;52.402;16.678;2022-09-09T13:00:22;5.00;;;1.60;;
19343;SDS011;9808;52.402;16.678;2022-09-09T13:02:52;5.38;;;1.60;;
19343;SDS011;9808;52.402;16.678;2022-09-09T13:05:22;3.70;;;1.30;;
19343;SDS011;9808;52.402;16.678;2022-09-09T13:07:50;5.38;;;1.55;;
19343;SDS011;9808;52.402;16.678;2022-09-09T13:10:21;4.03;;;1.48;;
19343;SDS011;9808;52.402;16.678;2022-09-09T13:13:02;7.30;;;1.40;;
19343;SDS011;9808;52.402;16.678;2022-09-09T13:15:29;6.07;;;1.92;;
19343;SDS011;9808;52.402;16.678;2022-09-09T13:18:00;3.90;;;1.60;;
19343;SDS011;9808;52.402;16.678;2022-09-09T13:20:31;4.50;;;1.50;;
19343;SDS011;9808;52.402;16.678;2022-09-09T13:22:58;3.85;;;1.25;;
19343;SDS011;9808;52.402;16.678;2022-09-09T13:25:26;4.10;;;1.40;;
19343;SDS011;9808;52.402;16.678;2022-09-09T13:27:58;6.93;;;1.45;;
19343;SDS011;9808;52.402;16.678;2022-09-09T13:30:32;3.90;;;1.75;;
19343;SDS011;9808;52.402;16.678;2022-09-09T13:33:17;2.58;;;1.60;;
19343;SDS011;9808;52.402;16.678;2022-09-09T13:36:11;4.18;;;1.33;;
19343;SDS011;9808;52.402;16.678;2022-09-09T13:38:53;2.45;;;1.05;;
19343;SDS011;9808;52.402;16.678;2022-09-09T13:41:29;6.10;;;1.30;;
19343;SDS011;9808;52.402;16.678;2022-09-09T13:43:59;3.92;;;1.40;;
19343;SDS011;9808;52.402;16.678;2022-09-09T13:46:36;5.95;;;1.48;;
19343;SDS011;9808;52.402;16.678;2022-09-09T13:51:35;4.93;;;1.50;;
19343;SDS011;9808;52.402;16.678;2022-09-09T13:54:04;5.70;;;0.98;;
19343;SDS011;9808;52.402;16.678;2022-09-09T13:56:33;4.40;;;1.25;;
19343;SDS011;9808;52.402;16.678;2022-09-09T13:59:02;3.35;;;1.10;;
19343;SDS011;9808;52.402;16.678;2022-09-09T14:01:30;4.60;;;1.30;;
19343;SDS011;9808;52.402;16.678;2022-09-09T14:03:57;3.72;;;1.33;;
19343;SDS011;9808;52.402;16.678;2022-09-09T14:06:25;3.00;;;1.23;;
19343;SDS011;9808;52.402;16.678;2022-09-09T14:08:52;7.30;;;1.20;;
19343;SDS011;9808;52.402;16.678;2022-09-09T14:11:21;3.05;;;1.20;;
19343;SDS011;9808;52.402;16.678;2022-09-09T14:13:48;4.22;;;1.33;;
19343;SDS011;9808;52.402;16.678;2022-09-09T14:16:17;8.80;;;1.27;;
19343;SDS011;9808;52.402;16.678;2022-09-09T14:18:45;4.10;;;1.40;;
19343;SDS011;9808;52.402;16.678;2022-09-09T14:21:12;8.68;;;1.50;;
19343;SDS011;9808;52.402;16.678;2022-09-09T14:23:39;4.28;;;1.20;;
19343;SDS011;9808;52.402;16.678;2022-09-09T14:26:06;3.22;;;1.23;;
19343;SDS011;9808;52.402;16.678;2022-09-09T14:28:35;3.92;;;1.52;;
19343;SDS011;9808;52.402;16.678;2022-09-09T14:31:19;7.18;;;1.52;;
19343;SDS011;9808;52.402;16.678;2022-09-09T14:33:47;3.63;;;1.40;;
19343;SDS011;9808;52.402;16.678;2022-09-09T14:36:14;2.95;;;1.30;;
19343;SDS011;9808;52.402;16.678;2022-09-09T14:38:41;4.82;;;1.45;;
19343;SDS011;9808;52.402;16.678;2022-09-09T14:41:09;3.80;;;1.50;;
19343;SDS011;9808;52.402;16.678;2022-09-09T14:43:38;2.85;;;1.08;;
19343;SDS011;9808;52.402;16.678;2022-09-09T14:46:06;5.07;;;1.50;;
19343;SDS011;9808;52.402;16.678;2022-09-09T14:48:51;5.25;;;1.30;;
19343;SDS011;9808;52.402;16.678;2022-09-09T14:51:20;5.65;;;1.50;;
19343;SDS011;9808;52.402;16.678;2022-09-09T14:53:52;5.90;;;1.40;;
19343;SDS011;9808;52.402;16.678;2022-09-09T14:56:21;5.07;;;1.50;;
19343;SDS011;9808;52.402;16.678;2022-09-09T14:58:50;6.20;;;1.55;;
19343;SDS011;9808;52.402;16.678;2022-09-09T15:01:18;4.63;;;1.40;;
19343;SDS011;9808;52.402;16.678;2022-09-09T15:03:50;3.97;;;1.40;;
19343;SDS011;9808;52.402;16.678;2022-09-09T15:06:18;2.60;;;1.20;;
19343;SDS011;9808;52.402;16.678;2022-09-09T15:08:46;7.95;;;1.67;;
19343;SDS011;9808;52.402;16.678;2022-09-09T15:11:14;3.50;;;1.30;;
19343;SDS011;9808;52.402;16.678;2022-09-09T15:13:42;4.20;;;1.50;;
19343;SDS011;9808;52.402;16.678;2022-09-09T15:16:11;4.45;;;1.70;;
19343;SDS011;9808;52.402;16.678;2022-09-09T15:18:40;8.95;;;1.95;;
19343;SDS011;9808;52.402;16.678;2022-09-09T15:21:11;6.38;;;1.60;;
19343;SDS011;9808;52.402;16.678;2022-09-09T15:23:40;4.85;;;1.20;;
19343;SDS011;9808;52.402;16.678;2022-09-09T15:26:07;5.05;;;1.33;;
19343;SDS011;9808;52.402;16.678;2022-09-09T15:28:35;3.33;;;1.33;;
19343;SDS011;9808;52.402;16.678;2022-09-09T15:31:05;5.25;;;1.38;;
19343;SDS011;9808;52.402;16.678;2022-09-09T15:33:38;4.53;;;1.42;;
19343;SDS011;9808;52.402;16.678;2022-09-09T15:36:14;7.45;;;1.40;;
19343;SDS011;9808;52.402;16.678;2022-09-09T15:38:43;3.42;;;1.20;;
19343;SDS011;9808;52.402;16.678;2022-09-09T15:41:11;5.20;;;1.45;;
19343;SDS011;9808;52.402;16.678;2022-09-09T15:43:42;6.70;;;1.30;;
19343;SDS011;9808;52.402;16.678;2022-09-09T15:48:53;4.72;;;1.50;;
19343;SDS011;9808;52.402;16.678;2022-09-09T15:51:22;3.22;;;1.33;;
19343;SDS011;9808;52.402;16.678;2022-09-09T15:54:08;5.18;;;1.63;;
19343;SDS011;9808;52.402;16.678;2022-09-09T15:56:39;5.30;;;1.70;;
19343;SDS011;9808;52.402;16.678;2022-09-09T15:59:06;6.88;;;1.70;;
19343;SDS011;9808;52.402;16.678;2022-09-09T16:01:33;5.68;;;1.65;;
19343;SDS011;9808;52.402;16.678;2022-09-09T16:04:01;7.38;;;1.65;;
19343;SDS011;9808;52.402;16.678;2022-09-09T16:06:29;4.95;;;1.55;;
19343;SDS011;9808;52.402;16.678;2022-09-09T16:08:56;7.55;;;1.38;;
19343;SDS011;9808;52.402;16.678;2022-09-09T16:11:25;5.93;;;1.50;;
19343;SDS011;9808;52.402;16.678;2022-09-09T16:13:53;4.53;;;1.20;;
19343;SDS011;9808;52.402;16.678;2022-09-09T16:16:25;4.88;;;1.40;;
19343;SDS011;9808;52.402;16.678;2022-09-09T16:18:54;6.35;;;1.95;;
19343;SDS011;9808;52.402;16.678;2022-09-09T16:21:24;6.93;;;1.40;;
19343;SDS011;9808;52.402;16.678;2022-09-09T16:24:21;4.43;;;1.50;;
19343;SDS011;9808;52.402;16.678;2022-09-09T16:26:49;4.85;;;1.40;;
19343;SDS011;9808;52.402;16.678;2022-09-09T16:29:18;9.95;;;1.60;;
19343;SDS011;9808;52.402;16.678;2022-09-09T16:31:45;5.97;;;1.50;;
19343;SDS011;9808;52.402;16.678;2022-09-09T16:34:13;11.32;;;1.58;;
19343;SDS011;9808;52.402;16.678;2022-09-09T16:36:42;4.10;;;1.50;;
19343;SDS011;9808;52.402;16.678;2022-09-09T16:39:14;3.28;;;1.35;;
19343;SDS011;9808;52.402;16.678;2022-09-09T16:41:42;2.75;;;1.30;;
19343;SDS011;9808;52.402;16.678;2022-09-09T16:44:11;3.65;;;1.38;;
19343;SDS011;9808;52.402;16.678;2022-09-09T16:46:39;3.58;;;1.33;;
19343;SDS011;9808;52.402;16.678;2022-09-09T16:49:09;5.05;;;1.30;;
19343;SDS011;9808;52.402;16.678;2022-09-09T16:51:45;6.43;;;1.50;;
19343;SDS011;9808;52.402;16.678;2022-09-09T16:54:14;8.23;;;1.92;;
19343;SDS011;9808;52.402;16.678;2022-09-09T16:56:43;9.95;;;1.52;;
19343;SDS011;9808;52.402;16.678;2022-09-09T16:59:13;5.43;;;1.85;;
19343;SDS011;9808;52.402;16.678;2022-09-09T17:01:42;8.23;;;2.08;;
19343;SDS011;9808;52.402;16.678;2022-09-09T17:04:11;11.23;;;2.65;;
19343;SDS011;9808;52.402;16.678;2022-09-09T17:06:45;9.07;;;2.83;;
19343;SDS011;9808;52.402;16.678;2022-09-09T17:09:15;5.15;;;2.15;;
19343;SDS011;9808;52.402;16.678;2022-09-09T17:11:43;9.27;;;2.28;;
19343;SDS011;9808;52.402;16.678;2022-09-09T17:14:13;6.18;;;1.80;;
19343;SDS011;9808;52.402;16.678;2022-09-09T17:16:42;6.97;;;1.75;;
19343;SDS011;9808;52.402;16.678;2022-09-09T17:19:10;5.38;;;1.98;;
19343;SDS011;9808;52.402;16.678;2022-09-09T17:21:37;4.72;;;1.75;;
19343;SDS011;9808;52.402;16.678;2022-09-09T17:24:24;10.98;;;2.50;;
19343;SDS011;9808;52.402;16.678;2022-09-09T17:26:52;8.35;;;2.55;;
19343;SDS011;9808;52.402;16.678;2022-09-09T17:29:20;9.02;;;3.08;;
19343;SDS011;9808;52.402;16.678;2022-09-09T17:31:47;13.20;;;4.40;;